createdAt,value
2022-08-11T00:00:26.851Z,18.83
2022-08-11T00:01:35.064Z,18.85
2022-08-11T00:02:27.071Z,18.85
2022-08-11T00:03:43.123Z,18.85
2022-08-11T00:04:26.692Z,18.79
2022-08-11T00:05:26.836Z,18.81
2022-08-11T00:06:26.845Z,18.76
2022-08-11T00:07:26.563Z,18.70
2022-08-11T00:08:26.655Z,18.70
2022-08-11T00:09:26.498Z,18.68
2022-08-11T00:10:27.695Z,18.61
2022-08-11T00:11:27.061Z,18.58
2022-08-11T00:12:26.359Z,18.64
2022-08-11T00:13:26.394Z,18.61
2022-08-11T00:14:37.862Z,18.48
2022-08-11T00:15:26.443Z,18.48
2022-08-11T00:16:26.403Z,18.49
2022-08-11T00:17:26.412Z,18.52
2022-08-11T00:18:26.138Z,18.42
2022-08-11T00:20:13.183Z,18.42
2022-08-11T00:20:26.433Z,18.39
2022-08-11T00:22:01.911Z,18.34
2022-08-11T00:22:25.955Z,18.34
2022-08-11T00:23:25.909Z,18.39
2022-08-11T00:24:25.949Z,18.26
2022-08-11T00:25:25.822Z,18.31
2022-08-11T00:26:26.067Z,18.26
2022-08-11T00:27:25.736Z,18.34
2022-08-11T00:28:27.027Z,18.37
2022-08-11T00:29:25.653Z,18.34
2022-08-11T00:30:25.891Z,18.34
2022-08-11T00:31:25.747Z,18.36
2022-08-11T00:32:25.702Z,18.36
2022-08-11T00:33:44.298Z,18.33
2022-08-11T00:34:25.452Z,18.28
2022-08-11T00:35:51.762Z,18.31
2022-08-11T00:36:25.786Z,18.33
2022-08-11T00:37:25.582Z,18.30
2022-08-11T00:38:25.539Z,18.24
2022-08-11T00:39:28.632Z,18.27
2022-08-11T00:40:25.210Z,18.28
2022-08-11T00:41:25.251Z,18.23
2022-08-11T00:42:25.121Z,18.23
2022-08-11T00:43:25.288Z,18.16
2022-08-11T00:44:25.121Z,18.21
2022-08-11T00:45:24.993Z,18.06
2022-08-11T00:46:32.245Z,18.08
2022-08-11T00:47:24.910Z,18.06
2022-08-11T00:48:24.889Z,17.95
2022-08-11T00:49:24.829Z,17.95
2022-08-11T00:50:24.816Z,17.90
2022-08-11T00:51:25.075Z,17.88
2022-08-11T00:52:25.022Z,17.76
2022-08-11T00:53:24.662Z,17.76
2022-08-11T00:54:24.832Z,17.78
2022-08-11T00:55:24.889Z,17.79
2022-08-11T00:56:24.538Z,17.86
2022-08-11T00:57:37.152Z,17.75
2022-08-11T00:58:24.455Z,17.78
2022-08-11T00:59:34.827Z,17.78
2022-08-11T01:00:24.389Z,17.79
2022-08-11T01:01:24.412Z,17.78
2022-08-11T01:02:24.448Z,17.69
2022-08-11T01:03:24.383Z,17.78
2022-08-11T01:04:24.224Z,17.75
2022-08-11T01:05:24.197Z,17.76
2022-08-11T01:06:24.144Z,17.73
2022-08-11T01:08:01.500Z,17.73
2022-08-11T01:08:24.275Z,17.80
2022-08-11T01:09:24.000Z,17.75
2022-08-11T01:10:24.030Z,17.73
2022-08-11T01:11:23.925Z,17.75
2022-08-11T01:12:23.878Z,17.75
2022-08-11T01:13:23.839Z,17.66
2022-08-11T01:14:34.190Z,17.69
2022-08-11T01:15:23.750Z,17.69
2022-08-11T01:16:23.862Z,17.66
2022-08-11T01:17:23.679Z,17.65
2022-08-11T01:18:23.631Z,17.71
2022-08-11T01:19:23.683Z,17.71
2022-08-11T01:20:46.415Z,17.73
2022-08-11T01:21:23.505Z,17.72
2022-08-11T01:22:23.495Z,17.65
2022-08-11T01:23:23.423Z,17.63
2022-08-11T01:24:23.504Z,17.71
2022-08-11T01:25:23.366Z,17.73
2022-08-11T01:26:23.522Z,17.57
2022-08-11T01:27:23.252Z,17.63
2022-08-11T01:28:23.338Z,17.56
2022-08-11T01:29:23.172Z,17.53
2022-08-11T01:30:23.350Z,17.53
2022-08-11T01:31:23.839Z,17.50
2022-08-11T01:32:23.157Z,17.52
2022-08-11T01:33:23.008Z,17.41
2022-08-11T01:34:22.959Z,17.41
2022-08-11T01:35:22.922Z,17.38
2022-08-11T01:36:22.982Z,17.44
2022-08-11T01:37:22.839Z,17.41
2022-08-11T01:38:23.198Z,17.37
2022-08-11T01:39:22.846Z,17.37
2022-08-11T01:40:22.713Z,17.34
2022-08-11T01:41:22.805Z,17.41
2022-08-11T01:42:22.633Z,17.41
2022-08-11T01:43:22.634Z,17.38
2022-08-11T01:44:22.556Z,17.44
2022-08-11T01:45:22.645Z,17.41
2022-08-11T01:46:22.463Z,17.34
2022-08-11T01:47:22.455Z,17.31
2022-08-11T01:48:22.386Z,17.24
2022-08-11T01:49:58.540Z,17.19
2022-08-11T01:50:22.464Z,17.17
2022-08-11T01:51:22.263Z,17.20
2022-08-11T01:52:30.918Z,17.10
2022-08-11T01:53:22.173Z,17.12
2022-08-11T01:54:22.490Z,17.07
2022-08-11T01:55:22.090Z,17.04
2022-08-11T01:56:22.095Z,17.12
2022-08-11T01:57:22.003Z,17.07
2022-08-11T01:58:22.109Z,17.04
2022-08-11T01:59:22.121Z,17.07
2022-08-11T02:00:21.911Z,17.04
2022-08-11T02:01:22.027Z,17.07
2022-08-11T02:02:21.847Z,17.02
2022-08-11T02:03:21.939Z,17.07
2022-08-11T02:04:21.796Z,17.04
2022-08-11T02:05:21.751Z,17.04
2022-08-11T02:06:21.634Z,17.05
2022-08-11T02:07:21.771Z,17.10
2022-08-11T02:08:21.568Z,17.02
2022-08-11T02:09:21.520Z,17.12
2022-08-11T02:10:21.594Z,17.12
2022-08-11T02:11:21.433Z,17.01
2022-08-11T02:12:21.395Z,16.97
2022-08-11T02:13:34.089Z,16.97
2022-08-11T02:14:21.297Z,16.97
2022-08-11T02:15:21.629Z,16.92
2022-08-11T02:16:21.229Z,16.95
2022-08-11T02:17:21.236Z,16.87
2022-08-11T02:18:21.129Z,16.95
2022-08-11T02:19:21.246Z,16.87
2022-08-11T02:20:21.043Z,16.94
2022-08-11T02:21:29.705Z,16.91
2022-08-11T02:22:21.054Z,16.94
2022-08-11T02:23:59.615Z,16.92
2022-08-11T02:24:20.877Z,16.87
2022-08-11T02:25:20.834Z,16.86
2022-08-11T02:26:20.905Z,16.80
2022-08-11T02:27:20.944Z,16.76
2022-08-11T02:28:20.893Z,16.79
2022-08-11T02:29:20.669Z,16.80
2022-08-11T02:30:20.725Z,16.79
2022-08-11T02:32:10.861Z,16.82
2022-08-11T02:32:28.915Z,16.77
2022-08-11T02:33:20.600Z,16.82
2022-08-11T02:34:20.525Z,16.84
2022-08-11T02:35:20.425Z,16.79
2022-08-11T02:36:20.556Z,16.80
2022-08-11T02:37:23.583Z,16.73
2022-08-11T02:38:20.357Z,16.74
2022-08-11T02:39:20.291Z,16.69
2022-08-11T02:40:21.445Z,16.69
2022-08-11T02:41:20.175Z,16.79
2022-08-11T02:42:32.060Z,16.83
2022-08-11T02:43:20.079Z,16.69
2022-08-11T02:44:20.409Z,16.66
2022-08-11T02:45:19.997Z,16.76
2022-08-11T02:46:19.958Z,16.65
2022-08-11T02:47:20.001Z,16.69
2022-08-11T02:48:27.133Z,16.65
2022-08-11T02:49:20.016Z,16.66
2022-08-11T02:50:19.817Z,16.59
2022-08-11T02:51:22.038Z,16.61
2022-08-11T02:52:19.715Z,16.61
2022-08-11T02:53:19.857Z,16.59
2022-08-11T02:54:19.724Z,16.62
2022-08-11T02:55:50.914Z,16.54
2022-08-11T02:56:19.678Z,16.55
2022-08-11T02:57:19.684Z,16.46
2022-08-11T02:58:19.909Z,16.41
2022-08-11T02:59:19.414Z,16.47
2022-08-11T03:00:19.687Z,16.44
2022-08-11T03:01:19.364Z,16.47
2022-08-11T03:02:19.516Z,16.49
2022-08-11T03:03:19.296Z,16.50
2022-08-11T03:04:19.198Z,16.43
2022-08-11T03:05:19.311Z,16.58
2022-08-11T03:06:19.122Z,16.61
2022-08-11T03:07:28.176Z,16.58
2022-08-11T03:08:19.204Z,16.54
2022-08-11T03:09:19.135Z,16.47
2022-08-11T03:10:18.947Z,16.50
2022-08-11T03:11:18.945Z,16.49
2022-08-11T03:12:18.860Z,16.34
2022-08-11T03:13:18.980Z,16.44
2022-08-11T03:14:18.780Z,16.32
2022-08-11T03:15:18.769Z,16.25
2022-08-11T03:16:18.696Z,16.24
2022-08-11T03:17:18.782Z,16.28
2022-08-11T03:18:18.615Z,16.24
2022-08-11T03:19:18.849Z,16.22
2022-08-11T03:20:18.528Z,16.25
2022-08-11T03:21:18.602Z,16.25
2022-08-11T03:22:18.449Z,16.24
2022-08-11T03:23:19.420Z,16.24
2022-08-11T03:24:18.353Z,16.21
2022-08-11T03:25:18.360Z,16.17
2022-08-11T03:26:18.436Z,16.16
2022-08-11T03:27:18.225Z,16.13
2022-08-11T03:28:18.247Z,16.16
2022-08-11T03:29:24.926Z,16.10
2022-08-11T03:30:18.259Z,16.10
2022-08-11T03:31:18.114Z,16.10
2022-08-11T03:32:18.097Z,16.10
2022-08-11T03:33:17.980Z,16.12
2022-08-11T03:34:18.106Z,16.13
2022-08-11T03:35:21.607Z,16.09
2022-08-11T03:36:17.849Z,16.12
2022-08-11T03:37:18.389Z,16.13
2022-08-11T03:38:17.912Z,16.18
2022-08-11T03:39:17.752Z,16.17
2022-08-11T03:40:17.738Z,16.13
2022-08-11T03:41:49.523Z,16.17
2022-08-11T03:42:17.594Z,16.24
2022-08-11T03:43:17.812Z,16.17
2022-08-11T03:44:17.541Z,16.17
2022-08-11T03:45:17.472Z,16.22
2022-08-11T03:46:17.582Z,16.24
2022-08-11T03:47:17.415Z,16.18
2022-08-11T03:48:17.371Z,16.10
2022-08-11T03:49:17.317Z,16.09
2022-08-11T03:50:17.379Z,16.13
2022-08-11T03:51:17.228Z,16.18
2022-08-11T03:52:17.218Z,16.13
2022-08-11T03:53:17.133Z,16.05
2022-08-11T03:54:17.208Z,15.98
2022-08-11T03:55:17.068Z,15.94
2022-08-11T03:56:17.248Z,16.03
2022-08-11T03:57:16.964Z,15.94
2022-08-11T03:58:17.076Z,16.06
2022-08-11T03:59:17.045Z,16.08
2022-08-11T04:00:16.834Z,16.05
2022-08-11T04:01:16.920Z,16.06
2022-08-11T04:02:16.750Z,16.06
2022-08-11T04:03:16.904Z,16.09
2022-08-11T04:04:16.667Z,16.06
2022-08-11T04:05:16.699Z,16.13
2022-08-11T04:06:16.601Z,16.09
2022-08-11T04:07:17.648Z,16.12
2022-08-11T04:08:16.506Z,16.08
2022-08-11T04:09:16.570Z,16.02
2022-08-11T04:10:16.530Z,16.13
2022-08-11T04:11:16.370Z,16.09
2022-08-11T04:12:16.544Z,16.00
2022-08-11T04:13:16.287Z,15.92
2022-08-11T04:14:16.352Z,15.99
2022-08-11T04:15:16.205Z,15.98
2022-08-11T04:16:16.571Z,16.03
2022-08-11T04:17:16.145Z,15.96
2022-08-11T04:18:16.254Z,16.02
2022-08-11T04:19:16.055Z,16.02
2022-08-11T04:20:15.998Z,15.99
2022-08-11T04:21:15.951Z,16.00
2022-08-11T04:22:16.104Z,16.00
2022-08-11T04:24:35.190Z,16.00
2022-08-11T04:24:37.685Z,16.02
2022-08-11T04:25:15.782Z,16.00
2022-08-11T04:26:18.772Z,15.98
2022-08-11T04:27:15.900Z,16.03
2022-08-11T04:28:29.243Z,15.94
2022-08-11T04:29:15.608Z,15.99
2022-08-11T04:30:16.841Z,15.98
2022-08-11T04:31:15.726Z,16.06
2022-08-11T04:32:16.556Z,16.06
2022-08-11T04:33:15.440Z,16.00
2022-08-11T04:34:15.545Z,16.05
2022-08-11T04:35:15.352Z,16.05
2022-08-11T04:36:15.372Z,15.98
2022-08-11T04:37:15.268Z,16.00
2022-08-11T04:38:15.374Z,16.05
2022-08-11T04:39:15.217Z,16.02
2022-08-11T04:40:15.381Z,16.02
2022-08-11T04:41:15.110Z,16.02
2022-08-11T04:42:15.066Z,16.00
2022-08-11T04:43:15.014Z,15.98
2022-08-11T04:44:15.003Z,16.00
2022-08-11T04:45:14.965Z,16.03
2022-08-11T04:46:15.018Z,16.03
2022-08-11T04:47:14.857Z,16.08
2022-08-11T04:48:14.805Z,16.08
2022-08-11T04:49:24.256Z,16.18
2022-08-11T04:50:14.716Z,16.09
2022-08-11T04:51:17.130Z,16.08
2022-08-11T04:52:14.635Z,16.09
2022-08-11T04:53:14.601Z,16.17
2022-08-11T04:54:14.557Z,16.18
2022-08-11T04:55:14.732Z,16.25
2022-08-11T04:56:14.513Z,16.26
2022-08-11T04:57:14.515Z,16.24
2022-08-11T04:58:14.411Z,16.26
2022-08-11T04:59:14.341Z,16.17
2022-08-11T05:00:14.543Z,16.22
2022-08-11T05:01:14.323Z,16.18
2022-08-11T05:02:17.090Z,16.22
2022-08-11T05:03:14.406Z,16.18
2022-08-11T05:04:14.130Z,16.24
2022-08-11T05:05:14.105Z,16.36
2022-08-11T05:06:14.198Z,16.32
2022-08-11T05:07:14.002Z,16.32
2022-08-11T05:08:15.292Z,16.34
2022-08-11T05:09:13.929Z,16.37
2022-08-11T05:10:13.872Z,16.43
2022-08-11T05:11:14.004Z,16.39
2022-08-11T05:12:13.790Z,16.50
2022-08-11T05:13:13.809Z,16.50
2022-08-11T05:14:13.791Z,16.58
2022-08-11T05:15:13.876Z,16.62
2022-08-11T05:16:13.627Z,16.57
2022-08-11T05:17:13.646Z,16.68
2022-08-11T05:18:13.538Z,16.55
2022-08-11T05:19:16.386Z,16.65
2022-08-11T05:20:13.465Z,16.66
2022-08-11T05:21:14.283Z,16.66
2022-08-11T05:22:22.806Z,16.72
2022-08-11T05:23:13.322Z,16.62
2022-08-11T05:24:13.285Z,16.74
2022-08-11T05:25:13.245Z,16.72
2022-08-11T05:26:47.178Z,16.68
2022-08-11T05:27:13.967Z,16.82
2022-08-11T05:28:13.110Z,16.83
2022-08-11T05:29:20.222Z,16.80
2022-08-11T05:30:13.033Z,16.84
2022-08-11T05:31:12.991Z,16.77
2022-08-11T05:32:12.963Z,16.82
2022-08-11T05:33:12.904Z,16.92
2022-08-11T05:34:12.862Z,16.95
2022-08-11T05:35:59.807Z,16.94
2022-08-11T05:36:12.779Z,16.97
2022-08-11T05:37:26.222Z,16.97
2022-08-11T05:38:12.706Z,17.04
2022-08-11T05:39:12.710Z,17.05
2022-08-11T05:40:12.665Z,17.10
2022-08-11T05:41:12.571Z,17.22
2022-08-11T05:42:12.529Z,17.24
2022-08-11T05:43:12.486Z,17.16
2022-08-11T05:44:19.696Z,17.19
2022-08-11T05:45:15.229Z,17.19
2022-08-11T05:46:13.271Z,17.27
2022-08-11T05:47:12.314Z,17.23
2022-08-11T05:48:12.271Z,17.31
2022-08-11T05:49:12.230Z,17.27
2022-08-11T05:50:13.305Z,17.30
2022-08-11T05:51:12.147Z,17.28
2022-08-11T05:52:13.022Z,17.24
2022-08-11T05:53:12.181Z,17.24
2022-08-11T05:54:29.211Z,17.27
2022-08-11T05:55:11.986Z,17.30
2022-08-11T05:56:11.956Z,17.31
2022-08-11T05:57:49.731Z,17.42
2022-08-11T05:58:11.853Z,17.50
2022-08-11T05:59:11.818Z,17.47
2022-08-11T06:03:58.273Z,17.54
2022-08-11T06:04:47.476Z,17.53
2022-08-11T06:05:47.421Z,17.54
2022-08-11T06:06:47.380Z,17.49
2022-08-11T06:07:49.728Z,17.54
2022-08-11T06:08:47.291Z,17.53
2022-08-11T06:09:47.273Z,17.59
2022-08-11T06:10:47.211Z,17.56
2022-08-11T06:11:47.163Z,17.66
2022-08-11T06:12:47.121Z,17.66
2022-08-11T06:13:47.082Z,17.68
2022-08-11T06:14:47.041Z,17.80
2022-08-11T06:15:47.010Z,17.88
2022-08-11T06:16:46.954Z,17.95
2022-08-11T06:17:46.912Z,18.02
2022-08-11T06:18:46.870Z,18.09
2022-08-11T06:19:46.866Z,18.21
2022-08-11T06:20:46.788Z,18.18
2022-08-11T06:21:46.743Z,18.34
2022-08-11T06:22:50.879Z,18.34
2022-08-11T06:23:46.660Z,18.45
2022-08-11T06:24:46.621Z,18.52
2022-08-11T06:25:46.608Z,18.49
2022-08-11T06:27:10.659Z,18.58
2022-08-11T06:27:46.492Z,18.67
2022-08-11T06:28:46.453Z,18.76
2022-08-11T06:29:47.718Z,18.79
2022-08-11T06:30:46.370Z,18.94
2022-08-11T06:31:46.346Z,18.94
2022-08-11T06:32:46.294Z,18.96
2022-08-11T06:33:46.250Z,19.00
2022-08-11T06:34:46.204Z,19.12
2022-08-11T06:35:46.179Z,19.16
2022-08-11T06:36:46.125Z,19.24
2022-08-11T06:37:46.081Z,19.19
2022-08-11T06:38:46.043Z,19.37
2022-08-11T06:39:46.025Z,19.39
2022-08-11T06:40:45.954Z,19.45
2022-08-11T06:41:45.939Z,19.49
2022-08-11T06:42:45.875Z,19.59
2022-08-11T06:43:55.422Z,19.59
2022-08-11T06:44:45.793Z,19.67
2022-08-11T06:45:45.780Z,19.79
2022-08-11T06:46:45.711Z,19.82
2022-08-11T06:47:45.709Z,19.87
2022-08-11T06:48:45.631Z,19.94
2022-08-11T06:49:45.590Z,20.04
2022-08-11T06:50:45.549Z,20.02
2022-08-11T06:51:45.514Z,20.10
2022-08-11T06:52:45.535Z,20.21
2022-08-11T06:53:56.259Z,20.26
2022-08-11T06:54:45.383Z,20.37
2022-08-11T06:55:58.096Z,20.37
2022-08-11T06:56:45.304Z,20.49
2022-08-11T06:57:45.267Z,20.42
2022-08-11T06:58:45.240Z,20.56
2022-08-11T06:59:45.182Z,20.68
2022-08-11T07:00:45.145Z,20.74
2022-08-11T07:01:45.187Z,20.71
2022-08-11T07:02:45.061Z,20.86
2022-08-11T07:03:45.023Z,20.88
2022-08-11T07:04:45.090Z,20.86
2022-08-11T07:05:44.939Z,21.05
2022-08-11T07:06:51.267Z,21.05
2022-08-11T07:07:44.866Z,21.08
2022-08-11T07:08:44.823Z,21.19
2022-08-11T07:09:44.781Z,21.25
2022-08-11T07:10:44.759Z,21.33
2022-08-11T07:11:44.695Z,21.32
2022-08-11T07:12:44.656Z,21.38
2022-08-11T07:13:45.899Z,21.45
2022-08-11T07:14:44.576Z,21.50
2022-08-11T07:16:10.415Z,21.70
2022-08-11T07:16:44.506Z,21.80
2022-08-11T07:17:44.464Z,21.85
2022-08-11T07:18:44.416Z,21.80
2022-08-11T07:19:44.373Z,21.94
2022-08-11T07:20:44.338Z,22.01
2022-08-11T07:22:00.814Z,22.12
2022-08-11T07:22:44.272Z,22.15
2022-08-11T07:23:44.218Z,22.21
2022-08-11T07:24:59.495Z,22.12
2022-08-11T07:25:44.137Z,22.23
2022-08-11T07:26:44.101Z,22.33
2022-08-11T07:27:44.058Z,22.30
2022-08-11T07:28:44.025Z,22.47
2022-08-11T07:29:43.986Z,22.49
2022-08-11T07:30:43.940Z,22.43
2022-08-11T07:31:43.899Z,22.46
2022-08-11T07:32:43.895Z,22.53
2022-08-11T07:34:08.454Z,22.52
2022-08-11T07:34:43.777Z,22.59
2022-08-11T07:35:43.737Z,22.62
2022-08-11T07:36:43.695Z,22.73
2022-08-11T07:37:43.657Z,22.88
2022-08-11T07:38:43.642Z,22.83
2022-08-11T07:39:43.617Z,22.96
2022-08-11T07:40:43.537Z,22.93
2022-08-11T07:41:43.501Z,22.98
2022-08-11T07:42:43.463Z,23.10
2022-08-11T07:43:43.442Z,23.13
2022-08-11T07:44:43.409Z,23.18
2022-08-11T07:45:43.345Z,23.16
2022-08-11T07:46:43.301Z,23.32
2022-08-11T07:47:43.267Z,23.32
2022-08-11T07:48:43.222Z,23.29
2022-08-11T07:49:43.189Z,23.29
2022-08-11T07:50:43.168Z,23.32
2022-08-11T07:51:43.103Z,23.32
2022-08-11T07:52:43.069Z,23.36
2022-08-11T07:53:58.564Z,23.29
2022-08-11T07:54:42.985Z,23.54
2022-08-11T07:55:51.587Z,23.63
2022-08-11T07:56:55.122Z,23.51
2022-08-11T07:58:14.131Z,23.55
2022-08-11T07:58:45.509Z,23.62
2022-08-11T08:00:00.435Z,23.70
2022-08-11T08:00:42.789Z,23.66
2022-08-11T08:01:42.773Z,23.73
2022-08-11T08:02:42.694Z,23.79
2022-08-11T08:03:54.614Z,23.86
2022-08-11T08:04:46.808Z,23.99
2022-08-11T08:05:42.556Z,24.10
2022-08-11T08:06:42.520Z,24.14
2022-08-11T08:07:42.492Z,24.04
2022-08-11T08:08:42.441Z,24.19
2022-08-11T08:09:42.400Z,24.13
2022-08-11T08:10:42.364Z,24.28
2022-08-11T08:11:42.330Z,24.31
2022-08-11T08:12:42.293Z,24.44
2022-08-11T08:13:42.271Z,24.48
2022-08-11T08:14:42.208Z,24.65
2022-08-11T08:15:42.168Z,24.75
2022-08-11T08:16:42.131Z,25.04
2022-08-11T08:17:42.091Z,25.37
2022-08-11T08:18:42.059Z,25.93
2022-08-11T08:19:42.036Z,26.49
2022-08-11T08:20:41.976Z,26.89
2022-08-11T08:21:41.942Z,27.41
2022-08-11T08:22:45.093Z,27.86
2022-08-11T08:23:41.863Z,28.18
2022-08-11T08:24:41.823Z,28.83
2022-08-11T08:25:41.794Z,29.42
2022-08-11T08:26:41.750Z,29.98
2022-08-11T08:27:41.712Z,30.46
2022-08-11T08:28:41.672Z,30.80
2022-08-11T08:29:41.637Z,30.93
2022-08-11T08:30:41.624Z,31.17
2022-08-11T08:31:41.561Z,31.41
2022-08-11T08:32:41.576Z,31.69
2022-08-11T08:33:41.488Z,32.09
2022-08-11T08:34:41.444Z,32.41
2022-08-11T08:35:54.014Z,32.60
2022-08-11T08:36:41.390Z,32.83
2022-08-11T08:37:46.808Z,32.66
2022-08-11T08:38:41.299Z,32.41
2022-08-11T08:39:41.308Z,32.39
2022-08-11T08:40:41.227Z,32.51
2022-08-11T08:41:41.189Z,32.68
2022-08-11T08:42:45.098Z,32.94
2022-08-11T08:43:49.187Z,32.91
2022-08-11T08:44:41.883Z,33.19
2022-08-11T08:45:41.057Z,33.53
2022-08-11T08:46:41.009Z,33.77
2022-08-11T08:47:41.998Z,34.13
2022-08-11T08:48:40.936Z,34.37
2022-08-11T08:49:40.928Z,34.51
2022-08-11T08:50:40.866Z,34.78
2022-08-11T08:52:01.091Z,34.98
2022-08-11T08:52:43.664Z,35.01
2022-08-11T08:53:52.385Z,34.71
2022-08-11T08:54:40.716Z,34.37
2022-08-11T08:55:45.350Z,34.60
2022-08-11T08:56:40.651Z,34.66
2022-08-11T08:57:48.768Z,34.66
2022-08-11T08:58:40.667Z,34.81
2022-08-11T08:59:48.546Z,34.82
2022-08-11T09:00:40.511Z,34.96
2022-08-11T09:01:40.498Z,35.34
2022-08-11T09:02:40.495Z,35.56
2022-08-11T09:04:07.108Z,35.79
2022-08-11T09:04:40.365Z,35.93
2022-08-11T09:05:40.358Z,36.17
2022-08-11T09:06:40.397Z,36.54
2022-08-11T09:07:40.780Z,36.51
2022-08-11T09:08:40.333Z,36.48
2022-08-11T09:09:40.197Z,36.36
2022-08-11T09:10:40.352Z,36.62
2022-08-11T09:11:40.140Z,36.76
2022-08-11T09:12:40.094Z,36.94
2022-08-11T09:13:40.392Z,37.00
2022-08-11T09:14:40.026Z,37.04
2022-08-11T09:15:40.170Z,36.99
2022-08-11T09:16:39.957Z,37.21
2022-08-11T09:17:40.070Z,37.48
2022-08-11T09:18:39.910Z,37.56
2022-08-11T09:19:39.997Z,37.63
2022-08-11T09:20:39.822Z,37.83
2022-08-11T09:21:48.396Z,38.04
2022-08-11T09:22:39.915Z,38.25
2022-08-11T09:24:06.809Z,38.35
2022-08-11T09:24:39.696Z,38.53
2022-08-11T09:25:39.842Z,38.76
2022-08-11T09:26:39.639Z,38.91
2022-08-11T09:27:39.788Z,39.11
2022-08-11T09:28:39.572Z,39.39
2022-08-11T09:29:39.563Z,39.60
2022-08-11T09:30:39.667Z,39.83
2022-08-11T09:31:40.271Z,39.83
2022-08-11T09:32:39.483Z,40.04
2022-08-11T09:33:39.472Z,40.13
2022-08-11T09:34:39.556Z,40.26
2022-08-11T09:35:39.381Z,40.08
2022-08-11T09:36:39.402Z,40.00
2022-08-11T09:37:55.467Z,40.10
2022-08-11T09:38:39.280Z,40.26
2022-08-11T09:39:39.447Z,40.31
2022-08-11T09:40:39.237Z,40.43
2022-08-11T09:42:00.879Z,40.62
2022-08-11T09:42:39.166Z,40.86
2022-08-11T09:43:39.144Z,41.07
2022-08-11T09:45:00.922Z,41.07
2022-08-11T09:45:40.049Z,41.05
2022-08-11T09:46:39.054Z,41.11
2022-08-11T09:47:39.272Z,41.37
2022-08-11T09:48:38.997Z,41.53
2022-08-11T09:49:39.171Z,41.45
2022-08-11T09:50:39.210Z,41.22
2022-08-11T09:51:38.914Z,41.53
2022-08-11T09:52:44.875Z,41.84
2022-08-11T09:53:41.345Z,41.93
2022-08-11T09:54:38.986Z,42.29
2022-08-11T09:55:38.810Z,42.40
2022-08-11T09:56:39.010Z,42.55
2022-08-11T09:57:39.129Z,42.82
2022-08-11T09:58:42.288Z,42.94
2022-08-11T09:59:38.820Z,43.02
2022-08-11T10:00:38.682Z,43.38
2022-08-11T10:01:38.904Z,43.54
2022-08-11T10:02:38.896Z,43.70
2022-08-11T10:03:40.472Z,43.92
2022-08-11T10:04:38.862Z,44.19
2022-08-11T10:05:38.548Z,44.35
2022-08-11T10:06:38.699Z,44.34
2022-08-11T10:07:38.613Z,44.29
2022-08-11T10:08:38.504Z,44.35
2022-08-11T10:09:38.459Z,44.42
2022-08-11T10:10:38.698Z,44.42
2022-08-11T10:11:38.389Z,44.64
2022-08-11T10:12:38.504Z,44.72
2022-08-11T10:14:30.692Z,44.75
2022-08-11T10:14:44.014Z,44.83
2022-08-11T10:15:38.372Z,44.87
2022-08-11T10:16:38.537Z,44.84
2022-08-11T10:17:38.434Z,44.91
2022-08-11T10:18:38.345Z,44.87
2022-08-11T10:19:38.289Z,44.83
2022-08-11T10:20:38.175Z,44.98
2022-08-11T10:21:38.501Z,44.99
2022-08-11T10:22:38.119Z,45.11
2022-08-11T10:24:00.897Z,44.94
2022-08-11T10:24:38.183Z,44.87
2022-08-11T10:25:38.071Z,44.89
2022-08-11T10:26:38.197Z,44.75
2022-08-11T10:28:17.766Z,44.96
2022-08-11T10:28:55.944Z,45.04
2022-08-11T10:29:45.349Z,44.68
2022-08-11T10:30:38.157Z,44.32
2022-08-11T10:31:38.987Z,44.04
2022-08-11T10:32:40.076Z,43.92
2022-08-11T10:33:44.158Z,43.97
2022-08-11T10:34:37.822Z,44.28
2022-08-11T10:35:37.990Z,44.50
2022-08-11T10:36:37.775Z,44.59
2022-08-11T10:38:15.685Z,44.84
2022-08-11T10:38:37.797Z,45.04
2022-08-11T10:39:37.709Z,44.77
2022-08-11T10:40:37.811Z,44.76
2022-08-11T10:41:37.637Z,45.02
2022-08-11T10:42:57.174Z,45.14
2022-08-11T10:44:03.232Z,45.30
2022-08-11T10:44:37.563Z,45.45
2022-08-11T10:45:37.757Z,45.48
2022-08-11T10:46:37.536Z,45.67
2022-08-11T10:47:37.683Z,45.83
2022-08-11T10:48:37.467Z,46.01
2022-08-11T10:49:37.851Z,46.01
2022-08-11T10:50:37.422Z,46.04
2022-08-11T10:51:50.065Z,46.05
2022-08-11T10:52:37.489Z,45.96
2022-08-11T10:53:37.355Z,45.96
2022-08-11T10:54:37.322Z,45.86
2022-08-11T10:55:45.371Z,45.90
2022-08-11T10:56:37.492Z,45.96
2022-08-11T10:57:37.253Z,45.90
2022-08-11T10:58:37.504Z,46.00
2022-08-11T10:59:37.197Z,46.08
2022-08-11T11:00:37.317Z,46.00
2022-08-11T11:01:37.493Z,46.01
2022-08-11T11:02:37.250Z,45.96
2022-08-11T11:03:37.119Z,45.97
2022-08-11T11:04:37.079Z,46.01
2022-08-11T11:05:37.059Z,46.08
2022-08-11T11:06:37.035Z,46.00
2022-08-11T11:07:37.043Z,45.59
2022-08-11T11:08:37.112Z,45.33
2022-08-11T11:09:36.976Z,45.28
2022-08-11T11:10:36.939Z,44.83
2022-08-11T11:11:37.120Z,44.65
2022-08-11T11:12:36.893Z,44.40
2022-08-11T11:13:37.120Z,44.50
2022-08-11T11:14:36.843Z,44.55
2022-08-11T11:15:36.823Z,44.55
2022-08-11T11:16:37.026Z,44.77
2022-08-11T11:17:36.779Z,44.89
2022-08-11T11:18:37.040Z,44.79
2022-08-11T11:19:36.760Z,44.76
2022-08-11T11:20:38.766Z,45.01
2022-08-11T11:21:36.854Z,45.11
2022-08-11T11:22:36.654Z,45.21
2022-08-11T11:23:36.835Z,45.51
2022-08-11T11:24:36.645Z,45.76
2022-08-11T11:25:36.806Z,45.97
2022-08-11T11:26:36.557Z,46.20
2022-08-11T11:27:36.536Z,46.39
2022-08-11T11:28:36.512Z,46.30
2022-08-11T11:29:36.525Z,46.22
2022-08-11T11:30:36.481Z,46.32
2022-08-11T11:31:36.532Z,46.37
2022-08-11T11:32:36.446Z,46.39
2022-08-11T11:34:12.351Z,46.10
2022-08-11T11:34:36.368Z,46.27
2022-08-11T11:35:36.569Z,45.96
2022-08-11T11:36:36.328Z,46.18
2022-08-11T11:37:36.384Z,46.32
2022-08-11T11:38:36.386Z,46.58
2022-08-11T11:39:36.312Z,46.53
2022-08-11T11:40:36.395Z,46.47
2022-08-11T11:41:36.282Z,46.56
2022-08-11T11:42:36.314Z,46.68
2022-08-11T11:43:36.192Z,46.63
2022-08-11T11:44:36.137Z,46.35
2022-08-11T11:45:36.127Z,46.31
2022-08-11T11:46:38.802Z,46.27
2022-08-11T11:47:36.069Z,46.34
2022-08-11T11:48:36.265Z,46.49
2022-08-11T11:49:36.030Z,46.55
2022-08-11T11:50:35.994Z,46.22
2022-08-11T11:51:36.093Z,46.10
2022-08-11T11:52:35.968Z,46.24
2022-08-11T11:53:36.163Z,46.34
2022-08-11T11:54:35.939Z,46.46
2022-08-11T11:55:35.878Z,46.51
2022-08-11T11:56:35.953Z,46.20
2022-08-11T11:57:35.835Z,46.32
2022-08-11T11:58:36.204Z,46.21
2022-08-11T11:59:35.791Z,45.70
2022-08-11T12:00:36.690Z,45.63
2022-08-11T12:01:35.746Z,45.69
2022-08-11T12:02:35.955Z,45.96
2022-08-11T12:03:35.800Z,46.12
2022-08-11T12:04:35.756Z,46.13
2022-08-11T12:05:35.668Z,46.30
2022-08-11T12:06:35.631Z,46.44
2022-08-11T12:07:35.601Z,46.58
2022-08-11T12:08:36.633Z,46.56
2022-08-11T12:09:35.647Z,46.34
2022-08-11T12:10:35.613Z,46.59
2022-08-11T12:11:35.512Z,46.63
2022-08-11T12:12:35.495Z,46.66
2022-08-11T12:13:35.469Z,46.74
2022-08-11T12:14:35.823Z,46.78
2022-08-11T12:16:31.091Z,46.93
2022-08-11T12:16:36.436Z,47.11
2022-08-11T12:17:35.378Z,47.41
2022-08-11T12:18:35.525Z,47.55
2022-08-11T12:19:35.530Z,47.62
2022-08-11T12:20:35.540Z,47.76
2022-08-11T12:21:35.301Z,47.94
2022-08-11T12:22:35.473Z,47.69
2022-08-11T12:23:35.238Z,47.73
2022-08-11T12:24:35.299Z,47.54
2022-08-11T12:25:35.335Z,47.70
2022-08-11T12:26:35.309Z,47.61
2022-08-11T12:27:39.126Z,47.60
2022-08-11T12:28:35.394Z,47.53
2022-08-11T12:29:35.407Z,47.57
2022-08-11T12:30:35.192Z,47.42
2022-08-11T12:31:43.332Z,46.99
2022-08-11T12:32:35.257Z,46.82
2022-08-11T12:33:38.764Z,46.96
2022-08-11T12:34:35.212Z,47.19
2022-08-11T12:35:34.969Z,47.21
2022-08-11T12:36:35.268Z,47.09
2022-08-11T12:37:35.165Z,47.16
2022-08-11T12:38:35.217Z,47.31
2022-08-11T12:40:16.479Z,47.42
2022-08-11T12:40:43.475Z,47.69
2022-08-11T12:41:34.859Z,47.89
2022-08-11T12:42:34.985Z,47.72
2022-08-11T12:43:38.049Z,47.80
2022-08-11T12:44:35.000Z,47.67
2022-08-11T12:45:34.747Z,47.74
2022-08-11T12:46:34.725Z,47.86
2022-08-11T12:47:34.818Z,47.82
2022-08-11T12:48:58.639Z,47.67
2022-08-11T12:49:34.683Z,47.06
2022-08-11T12:50:34.840Z,46.92
2022-08-11T12:52:00.984Z,47.15
2022-08-11T12:52:34.603Z,46.99
2022-08-11T12:53:34.593Z,46.92
2022-08-11T12:54:35.685Z,46.74
2022-08-11T12:55:34.538Z,46.63